createdAt,value
2022-09-15T00:01:01.721Z,49.42
2022-09-15T00:03:29.132Z,49.11
2022-09-15T00:05:56.207Z,50.00
2022-09-15T00:08:24.428Z,49.14
2022-09-15T00:10:54.824Z,48.87
2022-09-15T00:13:22.799Z,48.95
2022-09-15T00:15:50.331Z,48.99
2022-09-15T00:18:17.859Z,49.21
2022-09-15T00:20:45.806Z,49.35
2022-09-15T00:23:14.824Z,48.99
2022-09-15T00:25:53.324Z,48.81
2022-09-15T00:28:22.425Z,48.84
2022-09-15T00:30:52.559Z,49.06
2022-09-15T00:33:21.344Z,50.28
2022-09-15T00:35:50.121Z,50.07
2022-09-15T00:38:18.603Z,49.64
2022-09-15T00:40:52.066Z,49.27
2022-09-15T00:43:21.971Z,48.73
2022-09-15T00:45:49.349Z,49.84
2022-09-15T00:48:21.636Z,49.27
2022-09-15T00:50:55.708Z,50.13
2022-09-15T00:53:24.419Z,49.64
2022-09-15T00:55:52.519Z,48.16
2022-09-15T00:58:33.082Z,49.24
2022-09-15T01:01:03.273Z,47.87
2022-09-15T01:03:33.308Z,48.55
2022-09-15T01:06:08.537Z,48.78
2022-09-15T01:08:58.783Z,47.54
2022-09-15T01:11:26.040Z,47.88
2022-09-15T01:13:53.101Z,48.52
2022-09-15T01:16:41.850Z,48.23
2022-09-15T01:19:41.863Z,48.93
2022-09-15T01:22:27.423Z,48.41
2022-09-15T01:25:03.550Z,49.46
2022-09-15T01:27:43.188Z,49.42
2022-09-15T01:30:15.141Z,48.74
2022-09-15T01:33:06.751Z,49.27
2022-09-15T01:35:56.308Z,50.36
2022-09-15T01:38:49.219Z,50.09
2022-09-15T01:41:40.734Z,49.22
2022-09-15T01:44:15.755Z,49.91
2022-09-15T01:46:47.786Z,49.78
2022-09-15T01:49:18.727Z,50.67
2022-09-15T01:51:48.595Z,50.67
2022-09-15T01:54:19.553Z,50.63
2022-09-15T01:56:46.953Z,50.73
2022-09-15T01:59:14.118Z,50.56
2022-09-15T02:01:54.365Z,50.56
2022-09-15T02:04:33.512Z,50.30
2022-09-15T02:07:12.182Z,50.27
2022-09-15T02:10:00.942Z,50.26
2022-09-15T02:12:39.584Z,50.38
2022-09-15T02:15:12.179Z,50.47
2022-09-15T02:17:45.733Z,50.59
2022-09-15T02:20:33.206Z,50.65
2022-09-15T02:23:09.731Z,50.76
2022-09-15T02:25:51.708Z,51.21
2022-09-15T02:28:25.707Z,51.41
2022-09-15T02:30:55.459Z,48.30
2022-09-15T02:33:25.022Z,47.92
2022-09-15T02:35:53.040Z,47.63
2022-09-15T02:38:20.449Z,46.56
2022-09-15T02:40:48.179Z,45.95
2022-09-15T02:43:17.874Z,45.52
2022-09-15T02:45:45.989Z,45.69
2022-09-15T02:48:13.609Z,43.94
2022-09-15T02:50:41.365Z,43.44
2022-09-15T02:53:09.018Z,43.46
2022-09-15T02:55:36.304Z,43.50
2022-09-15T02:58:03.917Z,43.31
2022-09-15T03:00:31.766Z,43.05
2022-09-15T03:02:58.883Z,43.40
2022-09-15T03:05:28.893Z,43.36
2022-09-15T03:07:57.249Z,44.17
2022-09-15T03:10:25.220Z,43.29
2022-09-15T03:12:53.813Z,43.18
2022-09-15T03:15:23.647Z,44.00
2022-09-15T03:17:51.394Z,44.04
2022-09-15T03:20:23.812Z,44.36
2022-09-15T03:22:51.307Z,44.09
2022-09-15T03:25:18.909Z,44.76
2022-09-15T03:27:46.171Z,44.57
2022-09-15T03:30:14.303Z,44.92
2022-09-15T03:32:41.492Z,44.71
2022-09-15T03:35:09.044Z,45.04
2022-09-15T03:37:36.437Z,45.74
2022-09-15T03:40:04.055Z,46.59
2022-09-15T03:42:31.472Z,46.76
2022-09-15T03:44:58.613Z,46.95
2022-09-15T03:47:25.972Z,47.03
2022-09-15T03:49:53.044Z,47.17
2022-09-15T03:52:20.090Z,47.49
2022-09-15T03:54:48.887Z,47.43
2022-09-15T03:57:16.044Z,47.38
2022-09-15T03:59:43.192Z,47.67
2022-09-15T04:02:10.261Z,47.77
2022-09-15T04:04:37.373Z,47.88
2022-09-15T04:07:04.593Z,47.88
2022-09-15T04:09:31.774Z,47.87
2022-09-15T04:11:58.800Z,48.51
2022-09-15T04:14:25.983Z,48.36
2022-09-15T04:16:53.077Z,48.42
2022-09-15T04:19:20.344Z,48.40
2022-09-15T04:21:48.211Z,48.59
2022-09-15T04:24:15.840Z,48.79
2022-09-15T04:26:42.952Z,48.91
2022-09-15T04:29:16.477Z,49.28
2022-09-15T04:31:43.900Z,49.37
2022-09-15T04:34:11.029Z,49.54
2022-09-15T04:36:38.414Z,49.80
2022-09-15T04:39:06.770Z,50.13
2022-09-15T04:41:34.067Z,50.40
2022-09-15T04:44:01.467Z,50.52
2022-09-15T04:46:28.545Z,52.07
2022-09-15T04:48:56.512Z,52.08
2022-09-15T04:51:24.505Z,51.95
2022-09-15T04:53:52.234Z,52.21
2022-09-15T04:56:22.053Z,52.39
2022-09-15T04:59:03.188Z,52.67
2022-09-15T05:01:34.589Z,52.97
2022-09-15T05:04:04.175Z,53.61
2022-09-15T05:06:32.276Z,53.57
2022-09-15T05:08:59.349Z,53.70
2022-09-15T05:11:27.274Z,54.43
2022-09-15T05:13:55.083Z,56.83
2022-09-15T05:16:25.067Z,55.91
2022-09-15T05:18:54.076Z,56.69
2022-09-15T05:21:23.102Z,56.88
2022-09-15T05:23:52.129Z,57.40
2022-09-15T05:26:22.695Z,58.05
2022-09-15T05:28:50.289Z,60.18
2022-09-15T05:31:25.878Z,59.07
2022-09-15T05:33:53.746Z,59.03
2022-09-15T05:36:25.263Z,58.82
2022-09-15T05:38:54.301Z,58.29
2022-09-15T05:41:21.597Z,58.84
2022-09-15T05:43:50.882Z,58.59
2022-09-15T05:46:19.462Z,58.30
2022-09-15T05:48:47.187Z,57.43
2022-09-15T05:51:14.876Z,57.86
2022-09-15T05:53:42.491Z,57.57
2022-09-15T05:56:14.727Z,57.64
2022-09-15T05:58:43.868Z,56.57
2022-09-15T06:01:20.719Z,54.73
2022-09-15T06:03:48.833Z,55.50
2022-09-15T06:06:16.060Z,55.65
2022-09-15T06:08:47.976Z,55.85
2022-09-15T06:11:18.050Z,55.46
2022-09-15T06:13:46.794Z,55.72
2022-09-15T06:16:18.396Z,55.55
2022-09-15T06:18:46.918Z,55.27
2022-09-15T06:21:28.101Z,55.08
2022-09-15T06:23:57.505Z,55.00
2022-09-15T06:26:27.390Z,54.87
2022-09-15T06:28:58.808Z,55.04
2022-09-15T06:31:28.279Z,55.16
2022-09-15T06:33:57.853Z,54.49
2022-09-15T06:36:27.541Z,54.05
2022-09-15T06:38:55.171Z,54.76
2022-09-15T06:41:22.575Z,54.89
2022-09-15T06:43:49.916Z,54.84
2022-09-15T06:46:20.008Z,54.41
2022-09-15T06:48:48.763Z,53.33
2022-09-15T06:51:17.976Z,54.01
2022-09-15T06:53:46.231Z,52.99
2022-09-15T06:56:21.780Z,53.47
2022-09-15T06:58:49.427Z,52.41
2022-09-15T07:01:28.143Z,51.91
2022-09-15T07:03:58.456Z,53.78
2022-09-15T07:06:28.886Z,53.37
2022-09-15T07:08:56.762Z,51.53
2022-09-15T07:11:24.401Z,50.17
2022-09-15T07:13:52.320Z,49.20
2022-09-15T07:16:20.759Z,49.30
2022-09-15T07:18:49.252Z,47.91
2022-09-15T07:21:18.621Z,48.82
2022-09-15T07:23:47.054Z,48.07
2022-09-15T07:26:23.096Z,47.97
2022-09-15T07:28:54.393Z,46.18
2022-09-15T07:31:23.680Z,44.57
2022-09-15T07:33:51.466Z,43.42
2022-09-15T07:36:18.637Z,42.78
2022-09-15T07:38:48.453Z,42.64
2022-09-15T07:41:27.062Z,42.69
2022-09-15T07:43:58.515Z,43.57
2022-09-15T07:46:27.377Z,38.21
2022-09-15T07:48:56.611Z,36.75
2022-09-15T07:51:25.176Z,35.46
2022-09-15T07:53:53.419Z,34.71
2022-09-15T07:56:21.646Z,33.06
2022-09-15T07:58:49.900Z,32.78
2022-09-15T08:01:19.095Z,32.83
2022-09-15T08:03:49.123Z,33.01
2022-09-15T08:06:21.836Z,31.27
2022-09-15T08:08:50.307Z,30.79
2022-09-15T08:11:19.282Z,30.51
2022-09-15T08:13:47.804Z,30.63
2022-09-15T08:16:18.146Z,29.76
2022-09-15T08:18:45.576Z,29.71
2022-09-15T08:21:20.416Z,29.59
2022-09-15T08:23:56.188Z,29.13
2022-09-15T08:26:24.166Z,28.61
2022-09-15T08:28:51.366Z,29.40
2022-09-15T08:31:18.596Z,28.22
2022-09-15T08:33:50.952Z,28.57
2022-09-15T08:36:18.574Z,28.62
2022-09-15T08:38:46.081Z,28.00
2022-09-15T08:41:24.568Z,28.07
2022-09-15T08:43:58.544Z,29.05
2022-09-15T08:46:51.844Z,28.74
2022-09-15T08:49:47.432Z,28.24
2022-09-15T08:52:30.747Z,28.37
2022-09-15T08:55:01.132Z,28.05
2022-09-15T08:57:28.379Z,28.04
2022-09-15T08:59:55.667Z,27.71
2022-09-15T09:02:49.201Z,28.09
2022-09-15T09:05:29.521Z,27.88
2022-09-15T09:08:27.144Z,27.75
2022-09-15T09:11:11.332Z,27.79
2022-09-15T09:14:09.817Z,27.16
2022-09-15T09:16:58.380Z,27.45
2022-09-15T09:19:46.568Z,27.78
2022-09-15T09:22:21.986Z,27.62
2022-09-15T09:24:53.438Z,27.67
2022-09-15T09:27:25.084Z,27.71
2022-09-15T09:30:02.680Z,27.47
2022-09-15T09:32:41.084Z,27.04
2022-09-15T09:35:34.697Z,26.43
2022-09-15T09:38:02.598Z,27.17
2022-09-15T09:40:31.760Z,27.12
2022-09-15T09:43:01.102Z,27.40
2022-09-15T09:45:28.256Z,27.02
2022-09-15T09:48:02.324Z,27.55
2022-09-15T09:50:39.089Z,27.03
2022-09-15T09:53:33.055Z,27.27
2022-09-15T09:56:13.150Z,27.31
2022-09-15T09:58:40.225Z,27.50
2022-09-15T10:01:19.636Z,28.06
2022-09-15T10:03:46.938Z,27.56
2022-09-15T10:06:17.474Z,28.33
2022-09-15T10:09:00.189Z,28.16
2022-09-15T10:11:46.853Z,27.44
2022-09-15T10:14:36.481Z,27.58
2022-09-15T10:17:09.686Z,27.78
2022-09-15T10:19:56.897Z,28.27
2022-09-15T10:22:33.019Z,28.57
2022-09-15T10:25:02.128Z,28.39
2022-09-15T10:27:36.967Z,27.93
2022-09-15T10:30:24.668Z,27.88
2022-09-15T10:32:51.808Z,28.56
2022-09-15T10:35:20.780Z,28.18
2022-09-15T10:38:12.111Z,28.06
2022-09-15T10:40:52.125Z,28.18
2022-09-15T10:43:52.924Z,28.23
2022-09-15T10:46:45.145Z,28.44
2022-09-15T10:49:34.824Z,28.81
2022-09-15T10:52:11.750Z,28.37
2022-09-15T10:54:57.619Z,28.30
2022-09-15T10:57:24.832Z,28.59
2022-09-15T11:00:10.282Z,28.76
2022-09-15T11:03:09.802Z,28.18
2022-09-15T11:05:42.673Z,28.82
2022-09-15T11:08:40.035Z,29.26
2022-09-15T11:11:16.120Z,28.54
2022-09-15T11:13:58.989Z,29.14
2022-09-15T11:16:44.113Z,29.11
2022-09-15T11:19:48.275Z,29.11
2022-09-15T11:22:24.765Z,28.78
2022-09-15T11:24:58.836Z,28.69
2022-09-15T11:27:40.100Z,28.32
2022-09-15T11:30:22.192Z,28.59
2022-09-15T11:33:02.524Z,28.26
2022-09-15T11:35:50.359Z,28.24
2022-09-15T11:38:18.263Z,28.22
2022-09-15T11:40:52.081Z,28.17
2022-09-15T11:43:30.080Z,28.91
2022-09-15T11:45:59.615Z,27.86
2022-09-15T11:48:55.478Z,28.15
2022-09-15T11:51:25.603Z,28.62
2022-09-15T11:54:06.229Z,28.51
2022-09-15T11:56:46.669Z,28.89
2022-09-15T11:59:28.853Z,28.62
2022-09-15T12:02:05.813Z,28.86
2022-09-15T12:04:57.961Z,28.34
2022-09-15T12:07:30.950Z,28.51
2022-09-15T12:10:14.376Z,28.78
2022-09-15T12:12:43.964Z,28.37
2022-09-15T12:15:16.700Z,28.69
2022-09-15T12:17:52.456Z,28.43
2022-09-15T12:20:32.424Z,27.89
2022-09-15T12:23:16.436Z,28.26
2022-09-15T12:25:46.576Z,28.38
2022-09-15T12:28:22.871Z,28.20
2022-09-15T12:31:10.953Z,27.85
2022-09-15T12:33:45.164Z,27.58
2022-09-15T12:36:37.178Z,27.83
2022-09-15T12:39:29.988Z,28.27
2022-09-15T12:42:10.829Z,27.96
2022-09-15T12:44:40.748Z,27.74
2022-09-15T12:47:22.721Z,27.55
2022-09-15T12:49:52.867Z,27.68
2022-09-15T12:52:22.607Z,27.73
2022-09-15T12:54:56.771Z,28.39
2022-09-15T12:57:29.357Z,28.13
2022-09-15T13:00:22.475Z,27.97
2022-09-15T13:02:53.014Z,28.10
2022-09-15T13:05:41.995Z,28.26
2022-09-15T13:08:34.757Z,28.63
2022-09-15T13:11:34.885Z,28.81
2022-09-15T13:14:07.951Z,29.04
2022-09-15T13:16:45.754Z,29.38
2022-09-15T13:19:18.751Z,29.39
2022-09-15T13:22:10.952Z,29.36
2022-09-15T13:24:47.040Z,29.90
2022-09-15T13:27:19.286Z,29.68
2022-09-15T13:29:50.947Z,29.90
2022-09-15T13:32:48.512Z,29.84
2022-09-15T13:35:41.659Z,30.42
2022-09-15T13:38:19.951Z,30.26
2022-09-15T13:41:24.372Z,30.25
2022-09-15T13:44:06.054Z,29.96
2022-09-15T13:46:42.018Z,30.35
2022-09-15T13:49:12.460Z,30.88
2022-09-15T13:51:43.980Z,31.08
2022-09-15T13:54:19.616Z,31.07
2022-09-15T13:56:53.293Z,30.80
2022-09-15T13:59:28.229Z,31.02
2022-09-15T14:01:56.969Z,31.26
2022-09-15T14:04:28.067Z,31.31
2022-09-15T14:07:00.211Z,31.18
2022-09-15T14:09:38.715Z,31.00
2022-09-15T14:12:12.165Z,30.70
2022-09-15T14:14:47.100Z,30.75
2022-09-15T14:17:30.300Z,31.00
2022-09-15T14:20:01.479Z,30.79
2022-09-15T14:22:33.944Z,30.93
2022-09-15T14:25:08.237Z,30.96
2022-09-15T14:27:36.732Z,31.08
2022-09-15T14:30:07.633Z,30.78
2022-09-15T14:32:44.038Z,31.39
2022-09-15T14:35:19.769Z,31.44
2022-09-15T14:37:57.008Z,31.25
2022-09-15T14:40:38.462Z,31.53
2022-09-15T14:43:25.891Z,31.27
2022-09-15T14:45:56.676Z,31.61
2022-09-15T14:48:28.353Z,31.49
2022-09-15T14:51:03.437Z,31.81
2022-09-15T14:53:35.493Z,32.21
2022-09-15T14:56:08.713Z,32.29
2022-09-15T14:58:38.845Z,32.19
2022-09-15T15:01:15.922Z,32.30
2022-09-15T15:03:49.651Z,32.35
2022-09-15T15:06:35.077Z,32.42
2022-09-15T15:09:22.513Z,32.80
2022-09-15T15:11:58.747Z,32.96
2022-09-15T15:14:26.198Z,33.00
2022-09-15T15:17:02.564Z,33.22
2022-09-15T15:19:35.467Z,33.21
2022-09-15T15:22:11.904Z,33.84
2022-09-15T15:24:44.994Z,33.73
2022-09-15T15:27:25.475Z,33.90
2022-09-15T15:29:52.997Z,33.77
2022-09-15T15:32:22.405Z,34.23
2022-09-15T15:35:01.416Z,34.23
2022-09-15T15:37:34.078Z,34.46
2022-09-15T15:40:08.121Z,34.54
2022-09-15T15:42:35.465Z,34.55
2022-09-15T15:45:23.110Z,34.91
2022-09-15T15:47:50.339Z,34.72
2022-09-15T15:50:26.268Z,34.54
2022-09-15T15:52:53.392Z,34.93
2022-09-15T15:55:26.951Z,34.94
2022-09-15T15:57:56.030Z,34.51
2022-09-15T16:00:36.863Z,35.09
2022-09-15T16:03:05.335Z,34.90
2022-09-15T16:05:34.084Z,34.99
2022-09-15T16:08:07.484Z,35.51
2022-09-15T16:10:40.438Z,35.56
2022-09-15T16:13:07.616Z,35.68
2022-09-15T16:15:34.833Z,36.36
2022-09-15T16:18:01.964Z,36.37
2022-09-15T16:20:30.681Z,36.47
2022-09-15T16:22:57.863Z,36.35
2022-09-15T16:25:34.301Z,36.74
2022-09-15T16:28:02.792Z,36.92
2022-09-15T16:30:30.389Z,36.54
2022-09-15T16:32:57.706Z,36.84
2022-09-15T16:35:33.675Z,36.88
2022-09-15T16:38:01.049Z,36.50
2022-09-15T16:40:28.586Z,36.22
2022-09-15T16:42:55.684Z,36.21
2022-09-15T16:45:43.497Z,36.09
2022-09-15T16:48:11.270Z,35.80
2022-09-15T16:50:42.632Z,35.32
2022-09-15T16:53:18.879Z,35.13
2022-09-15T16:55:51.646Z,34.99
2022-09-15T16:58:20.311Z,34.75
2022-09-15T17:00:50.090Z,35.14
2022-09-15T17:03:19.618Z,34.88
2022-09-15T17:05:58.900Z,34.79
2022-09-15T17:08:29.677Z,35.03
2022-09-15T17:10:58.585Z,35.22
2022-09-15T17:13:30.316Z,35.13
2022-09-15T17:15:59.271Z,35.30
2022-09-15T17:18:27.519Z,35.37
2022-09-15T17:20:54.807Z,35.64
2022-09-15T17:23:37.084Z,35.43
2022-09-15T17:26:12.125Z,35.52
2022-09-15T17:28:39.704Z,35.50
2022-09-15T17:31:13.389Z,35.53
2022-09-15T17:33:40.847Z,35.73
2022-09-15T17:36:08.468Z,36.19
2022-09-15T17:38:35.753Z,36.08
2022-09-15T17:41:03.211Z,36.44
2022-09-15T17:43:31.386Z,36.67
2022-09-15T17:45:58.847Z,36.99
2022-09-15T17:48:26.236Z,37.14
2022-09-15T17:50:53.333Z,37.18
2022-09-15T17:53:22.872Z,37.01
2022-09-15T17:55:50.940Z,37.31
2022-09-15T17:58:18.886Z,37.14
2022-09-15T18:00:47.756Z,37.45
2022-09-15T18:03:18.099Z,37.46
2022-09-15T18:05:45.410Z,37.76
2022-09-15T18:08:13.084Z,38.01
2022-09-15T18:10:40.261Z,38.42
2022-09-15T18:13:07.571Z,38.89
2022-09-15T18:15:35.288Z,38.36
2022-09-15T18:18:08.477Z,38.63
2022-09-15T18:20:36.830Z,38.25
2022-09-15T18:23:04.045Z,38.91
2022-09-15T18:25:34.628Z,38.57
2022-09-15T18:28:03.053Z,38.43
2022-09-15T18:30:33.123Z,38.67
2022-09-15T18:33:00.245Z,38.65
2022-09-15T18:35:27.420Z,38.94
2022-09-15T18:37:57.812Z,38.29
2022-09-15T18:40:27.090Z,38.96
2022-09-15T18:42:56.565Z,39.58
2022-09-15T18:45:23.717Z,39.47
2022-09-15T18:47:52.328Z,39.78
2022-09-15T18:50:22.287Z,40.27
2022-09-15T18:52:50.213Z,40.13
2022-09-15T18:55:22.519Z,40.40
2022-09-15T18:57:49.790Z,40.60
2022-09-15T19:00:20.484Z,40.69
2022-09-15T19:02:47.890Z,41.14
2022-09-15T19:05:16.764Z,41.05
2022-09-15T19:07:45.436Z,41.22
2022-09-15T19:10:14.719Z,41.87
2022-09-15T19:12:42.057Z,41.90
2022-09-15T19:15:11.540Z,42.02
2022-09-15T19:17:39.600Z,41.94
2022-09-15T19:20:09.117Z,41.89
2022-09-15T19:22:36.657Z,42.06
2022-09-15T19:25:05.757Z,42.00
2022-09-15T19:27:32.855Z,42.24
2022-09-15T19:30:00.639Z,42.21
2022-09-15T19:32:27.919Z,42.45
2022-09-15T19:34:55.007Z,42.13
2022-09-15T19:37:23.411Z,42.45
2022-09-15T19:39:50.755Z,42.28
2022-09-15T19:42:18.037Z,42.16
2022-09-15T19:44:45.268Z,42.60
2022-09-15T19:47:12.453Z,41.83
2022-09-15T19:49:39.527Z,41.94
2022-09-15T19:52:06.661Z,41.89
2022-09-15T19:54:34.695Z,41.96
2022-09-15T19:57:02.346Z,42.27
2022-09-15T19:59:48.320Z,42.25
2022-09-15T20:02:15.664Z,42.58
2022-09-15T20:04:43.289Z,42.87
2022-09-15T20:07:10.609Z,42.83
2022-09-15T20:09:39.527Z,43.03
2022-09-15T20:12:07.044Z,43.01
2022-09-15T20:14:34.386Z,43.12
2022-09-15T20:17:02.019Z,43.07
2022-09-15T20:19:30.045Z,43.08
2022-09-15T20:21:57.280Z,43.12
2022-09-15T20:24:25.035Z,42.98
2022-09-15T20:26:52.313Z,42.91
2022-09-15T20:29:20.501Z,42.93
2022-09-15T20:31:47.748Z,43.37
2022-09-15T20:34:15.348Z,43.07
2022-09-15T20:36:42.646Z,43.11
2022-09-15T20:39:13.506Z,43.61
2022-09-15T20:41:45.108Z,43.04
2022-09-15T20:44:12.639Z,43.42
2022-09-15T20:46:40.003Z,43.15
2022-09-15T20:49:07.221Z,43.42
2022-09-15T20:51:34.816Z,43.26
2022-09-15T20:54:04.411Z,43.55
2022-09-15T20:56:35.092Z,43.42
2022-09-15T20:59:04.501Z,43.18
2022-09-15T21:01:37.198Z,43.36
2022-09-15T21:04:06.083Z,43.62
2022-09-15T21:06:34.097Z,43.94
2022-09-15T21:09:01.371Z,43.94
2022-09-15T21:11:30.216Z,43.78
2022-09-15T21:13:57.636Z,44.02
2022-09-15T21:16:27.950Z,44.38
2022-09-15T21:18:57.505Z,43.89
2022-09-15T21:21:30.306Z,43.77
2022-09-15T21:24:01.848Z,44.20
2022-09-15T21:26:31.238Z,44.26
2022-09-15T21:28:58.747Z,43.87
2022-09-15T21:31:31.098Z,44.07
2022-09-15T21:33:59.321Z,44.35
2022-09-15T21:36:29.828Z,44.19
2022-09-15T21:38:58.402Z,43.84
2022-09-15T21:41:29.976Z,44.14
2022-09-15T21:43:58.477Z,44.23
2022-09-15T21:46:28.097Z,44.18
2022-09-15T21:48:57.609Z,43.83
2022-09-15T21:51:26.887Z,43.41
2022-09-15T21:53:55.763Z,44.34
2022-09-15T21:56:24.008Z,44.20
2022-09-15T21:58:51.293Z,44.44
2022-09-15T22:01:23.903Z,44.47
2022-09-15T22:03:53.367Z,44.38
2022-09-15T22:06:22.677Z,43.84
2022-09-15T22:08:49.930Z,44.18
2022-09-15T22:11:17.077Z,44.21
2022-09-15T22:13:44.855Z,44.28
2022-09-15T22:16:23.533Z,44.09
2022-09-15T22:18:51.277Z,43.96
2022-09-15T22:21:19.759Z,43.95
2022-09-15T22:23:48.956Z,44.01
2022-09-15T22:26:21.619Z,43.87
2022-09-15T22:28:49.070Z,43.98
2022-09-15T22:31:18.691Z,44.57
2022-09-15T22:33:46.516Z,44.49
2022-09-15T22:36:27.936Z,44.73
2022-09-15T22:38:56.666Z,45.09
2022-09-15T22:41:27.381Z,44.63
2022-09-15T22:43:54.520Z,44.72
2022-09-15T22:46:21.870Z,44.93
2022-09-15T22:48:49.923Z,45.17
2022-09-15T22:51:17.194Z,45.18
2022-09-15T22:53:44.343Z,44.64
2022-09-15T22:56:19.957Z,44.75
2022-09-15T22:58:49.691Z,43.76
2022-09-15T23:01:20.252Z,43.67
2022-09-15T23:03:51.828Z,42.96
2022-09-15T23:06:20.210Z,42.78
2022-09-15T23:08:55.378Z,42.59
2022-09-15T23:11:23.442Z,42.48
2022-09-15T23:13:50.579Z,42.60
2022-09-15T23:16:17.845Z,42.22
2022-09-15T23:18:45.459Z,42.34
2022-09-15T23:21:13.620Z,41.85
2022-09-15T23:23:43.329Z,41.97
2022-09-15T23:26:12.408Z,42.09
2022-09-15T23:28:39.972Z,41.83
2022-09-15T23:31:10.103Z,41.65
2022-09-15T23:33:37.870Z,41.81
2022-09-15T23:36:07.633Z,41.95
2022-09-15T23:38:39.995Z,41.65
2022-09-15T23:41:08.286Z,41.46
2022-09-15T23:43:35.951Z,41.47
2022-09-15T23:46:04.301Z,41.47
2022-09-15T23:48:34.648Z,41.40
2022-09-15T23:51:02.050Z,41.40
2022-09-15T23:53:29.972Z,41.67
2022-09-15T23:55:57.193Z,42.31
2022-09-15T23:58:24.846Z,41.60
